sensor_id;sensor_type;location;lat;lon;timestamp;temperature;humidity
74946;HTU21D;63509;45.250;38.102;2023-05-23T00:00:59;17.04;63.45
74946;HTU21D;63509;45.250;38.102;2023-05-23T00:03:25;17.03;63.47
74946;HTU21D;63509;45.250;38.102;2023-05-23T00:05:52;17.01;63.50
74946;HTU21D;63509;45.250;38.102;2023-05-23T00:08:18;17.01;63.51
74946;HTU21D;63509;45.250;38.102;2023-05-23T00:10:44;17.00;63.56
74946;HTU21D;63509;45.250;38.102;2023-05-23T00:13:10;16.98;63.60
74946;HTU21D;63509;45.250;38.102;2023-05-23T00:15:40;16.99;63.57
74946;HTU21D;63509;45.250;38.102;2023-05-23T00:18:07;16.95;63.60
74946;HTU21D;63509;45.250;38.102;2023-05-23T00:20:35;16.95;63.62
74946;HTU21D;63509;45.250;38.102;2023-05-23T00:23:01;16.94;63.66
74946;HTU21D;63509;45.250;38.102;2023-05-23T00:25:28;16.93;63.65
74946;HTU21D;63509;45.250;38.102;2023-05-23T00:27:59;16.92;63.67
74946;HTU21D;63509;45.250;38.102;2023-05-23T00:30:32;16.92;63.57
74946;HTU21D;63509;45.250;38.102;2023-05-23T00:32:59;16.89;63.67
74946;HTU21D;63509;45.250;38.102;2023-05-23T00:35:25;16.89;63.70
74946;HTU21D;63509;45.250;38.102;2023-05-23T00:37:52;16.88;63.72
74946;HTU21D;63509;45.250;38.102;2023-05-23T00:40:18;16.85;63.74
74946;HTU21D;63509;45.250;38.102;2023-05-23T00:42:45;16.82;63.78
74946;HTU21D;63509;45.250;38.102;2023-05-23T00:45:13;16.79;63.79
74946;HTU21D;63509;45.250;38.102;2023-05-23T00:47:43;16.77;63.76
74946;HTU21D;63509;45.250;38.102;2023-05-23T00:50:12;16.76;63.82
74946;HTU21D;63509;45.250;38.102;2023-05-23T00:52:43;16.73;63.84
74946;HTU21D;63509;45.250;38.102;2023-05-23T00:55:11;16.72;63.88
74946;HTU21D;63509;45.250;38.102;2023-05-23T00:57:37;16.69;63.92
74946;HTU21D;63509;45.250;38.102;2023-05-23T01:00:12;16.66;63.86
74946;HTU21D;63509;45.250;38.102;2023-05-23T01:02:42;16.65;63.91
74946;HTU21D;63509;45.250;38.102;2023-05-23T01:05:10;16.64;63.94
74946;HTU21D;63509;45.250;38.102;2023-05-23T01:07:40;16.61;63.96
74946;HTU21D;63509;45.250;38.102;2023-05-23T01:10:07;16.59;63.96
74946;HTU21D;63509;45.250;38.102;2023-05-23T01:15:30;16.55;63.92
74946;HTU21D;63509;45.250;38.102;2023-05-23T01:18:15;16.50;63.89
74946;HTU21D;63509;45.250;38.102;2023-05-23T01:20:42;16.46;64.04
74946;HTU21D;63509;45.250;38.102;2023-05-23T01:28:36;16.41;64.05
74946;HTU21D;63509;45.250;38.102;2023-05-23T01:31:03;16.41;64.20
74946;HTU21D;63509;45.250;38.102;2023-05-23T01:33:32;16.39;64.21
74946;HTU21D;63509;45.250;38.102;2023-05-23T01:36:00;16.40;64.23
74946;HTU21D;63509;45.250;38.102;2023-05-23T01:38:30;16.37;64.26
74946;HTU21D;63509;45.250;38.102;2023-05-23T01:40:56;16.37;64.28
74946;HTU21D;63509;45.250;38.102;2023-05-23T01:43:23;16.36;64.30
74946;HTU21D;63509;45.250;38.102;2023-05-23T01:45:52;16.36;64.29
74946;HTU21D;63509;45.250;38.102;2023-05-23T01:48:22;16.35;64.29
74946;HTU21D;63509;45.250;38.102;2023-05-23T01:50:50;16.35;64.30
74946;HTU21D;63509;45.250;38.102;2023-05-23T01:53:20;16.33;64.32
74946;HTU21D;63509;45.250;38.102;2023-05-23T01:55:47;16.32;64.37
74946;HTU21D;63509;45.250;38.102;2023-05-23T01:58:14;16.31;64.40
74946;HTU21D;63509;45.250;38.102;2023-05-23T02:00:40;16.29;64.45
74946;HTU21D;63509;45.250;38.102;2023-05-23T02:03:08;16.30;64.45
74946;HTU21D;63509;45.250;38.102;2023-05-23T02:05:34;16.30;64.50
74946;HTU21D;63509;45.250;38.102;2023-05-23T02:08:00;16.29;64.51
74946;HTU21D;63509;45.250;38.102;2023-05-23T02:10:27;16.29;64.50
74946;HTU21D;63509;45.250;38.102;2023-05-23T02:12:53;16.28;64.54
74946;HTU21D;63509;45.250;38.102;2023-05-23T02:15:19;16.28;64.59
74946;HTU21D;63509;45.250;38.102;2023-05-23T02:17:45;16.28;64.59
74946;HTU21D;63509;45.250;38.102;2023-05-23T02:20:12;16.30;64.63
74946;HTU21D;63509;45.250;38.102;2023-05-23T02:22:39;16.29;64.66
74946;HTU21D;63509;45.250;38.102;2023-05-23T02:25:05;16.31;64.70
74946;HTU21D;63509;45.250;38.102;2023-05-23T02:27:32;16.30;64.72
74946;HTU21D;63509;45.250;38.102;2023-05-23T02:29:58;16.32;64.75
74946;HTU21D;63509;45.250;38.102;2023-05-23T02:32:24;16.33;64.80
74946;HTU21D;63509;45.250;38.102;2023-05-23T02:34:51;16.34;64.84
74946;HTU21D;63509;45.250;38.102;2023-05-23T02:37:17;16.37;64.82
74946;HTU21D;63509;45.250;38.102;2023-05-23T02:39:44;16.36;64.88
74946;HTU21D;63509;45.250;38.102;2023-05-23T02:42:10;16.40;64.93
74946;HTU21D;63509;45.250;38.102;2023-05-23T02:44:36;16.41;64.96
74946;HTU21D;63509;45.250;38.102;2023-05-23T02:47:03;16.44;64.97
74946;HTU21D;63509;45.250;38.102;2023-05-23T02:49:29;16.45;65.01
74946;HTU21D;63509;45.250;38.102;2023-05-23T02:51:55;16.47;64.99
74946;HTU21D;63509;45.250;38.102;2023-05-23T02:54:21;16.47;65.01
74946;HTU21D;63509;45.250;38.102;2023-05-23T02:56:48;16.49;65.04
74946;HTU21D;63509;45.250;38.102;2023-05-23T02:59:16;16.51;64.73
74946;HTU21D;63509;45.250;38.102;2023-05-23T03:01:42;16.51;64.88
74946;HTU21D;63509;45.250;38.102;2023-05-23T03:04:08;16.52;64.98
74946;HTU21D;63509;45.250;38.102;2023-05-23T03:06:34;16.54;65.03
74946;HTU21D;63509;45.250;38.102;2023-05-23T03:09:01;16.56;65.05
74946;HTU21D;63509;45.250;38.102;2023-05-23T03:11:27;16.60;65.08
74946;HTU21D;63509;45.250;38.102;2023-05-23T03:13:54;16.62;65.09
74946;HTU21D;63509;45.250;38.102;2023-05-23T03:16:21;16.65;65.11
74946;HTU21D;63509;45.250;38.102;2023-05-23T03:18:48;16.70;65.12
74946;HTU21D;63509;45.250;38.102;2023-05-23T03:21:15;16.72;65.14
74946;HTU21D;63509;45.250;38.102;2023-05-23T03:23:42;16.74;65.17
74946;HTU21D;63509;45.250;38.102;2023-05-23T03:26:09;16.77;65.21
74946;HTU21D;63509;45.250;38.102;2023-05-23T03:28:35;16.82;65.25
74946;HTU21D;63509;45.250;38.102;2023-05-23T03:31:01;16.86;65.29
74946;HTU21D;63509;45.250;38.102;2023-05-23T03:33:27;16.91;65.30
74946;HTU21D;63509;45.250;38.102;2023-05-23T03:35:53;16.96;65.32
74946;HTU21D;63509;45.250;38.102;2023-05-23T03:38:19;17.00;65.33
74946;HTU21D;63509;45.250;38.102;2023-05-23T03:40:45;17.04;65.33
74946;HTU21D;63509;45.250;38.102;2023-05-23T03:43:12;17.07;65.33
74946;HTU21D;63509;45.250;38.102;2023-05-23T03:45:40;17.11;65.01
74946;HTU21D;63509;45.250;38.102;2023-05-23T03:48:11;17.13;65.13
74946;HTU21D;63509;45.250;38.102;2023-05-23T03:50:38;17.16;65.24
74946;HTU21D;63509;45.250;38.102;2023-05-23T03:53:05;17.20;65.28
74946;HTU21D;63509;45.250;38.102;2023-05-23T03:55:31;17.25;65.33
74946;HTU21D;63509;45.250;38.102;2023-05-23T03:57:58;17.30;65.37
74946;HTU21D;63509;45.250;38.102;2023-05-23T04:00:32;17.35;65.42
74946;HTU21D;63509;45.250;38.102;2023-05-23T04:03:00;17.40;65.42
74946;HTU21D;63509;45.250;38.102;2023-05-23T04:05:26;17.44;65.43
74946;HTU21D;63509;45.250;38.102;2023-05-23T04:07:52;17.49;65.48
74946;HTU21D;63509;45.250;38.102;2023-05-23T04:10:18;17.55;65.52
74946;HTU21D;63509;45.250;38.102;2023-05-23T04:12:45;17.62;65.56
74946;HTU21D;63509;45.250;38.102;2023-05-23T04:15:14;17.67;65.50
74946;HTU21D;63509;45.250;38.102;2023-05-23T04:18:02;17.74;65.53
74946;HTU21D;63509;45.250;38.102;2023-05-23T04:20:31;17.79;65.52
74946;HTU21D;63509;45.250;38.102;2023-05-23T04:22:58;17.84;65.51
74946;HTU21D;63509;45.250;38.102;2023-05-23T04:25:25;17.90;65.57
74946;HTU21D;63509;45.250;38.102;2023-05-23T04:28:05;17.97;65.53
74946;HTU21D;63509;45.250;38.102;2023-05-23T04:30:32;18.00;65.53
74946;HTU21D;63509;45.250;38.102;2023-05-23T04:32:58;18.06;65.54
74946;HTU21D;63509;45.250;38.102;2023-05-23T04:35:27;18.10;65.53
74946;HTU21D;63509;45.250;38.102;2023-05-23T04:37:54;18.15;65.56
74946;HTU21D;63509;45.250;38.102;2023-05-23T04:40:23;18.20;65.53
74946;HTU21D;63509;45.250;38.102;2023-05-23T04:43:01;18.25;65.52
74946;HTU21D;63509;45.250;38.102;2023-05-23T04:45:47;18.29;65.50
74946;HTU21D;63509;45.250;38.102;2023-05-23T04:48:36;18.33;65.48
74946;HTU21D;63509;45.250;38.102;2023-05-23T04:51:03;18.37;65.50
74946;HTU21D;63509;45.250;38.102;2023-05-23T04:53:34;18.40;65.43
74946;HTU21D;63509;45.250;38.102;2023-05-23T04:56:02;18.42;65.41
74946;HTU21D;63509;45.250;38.102;2023-05-23T04:58:29;18.41;65.34
74946;HTU21D;63509;45.250;38.102;2023-05-23T05:01:01;18.41;65.33
74946;HTU21D;63509;45.250;38.102;2023-05-23T05:03:27;18.42;65.34
74946;HTU21D;63509;45.250;38.102;2023-05-23T05:05:53;18.43;65.38
74946;HTU21D;63509;45.250;38.102;2023-05-23T05:08:19;18.43;65.40
74946;HTU21D;63509;45.250;38.102;2023-05-23T05:10:45;18.40;65.40
74946;HTU21D;63509;45.250;38.102;2023-05-23T05:13:14;18.40;65.43
74946;HTU21D;63509;45.250;38.102;2023-05-23T05:15:44;18.37;65.44
74946;HTU21D;63509;45.250;38.102;2023-05-23T05:18:11;18.35;65.47
74946;HTU21D;63509;45.250;38.102;2023-05-23T05:20:39;18.34;65.47
74946;HTU21D;63509;45.250;38.102;2023-05-23T05:23:05;18.33;65.50
74946;HTU21D;63509;45.250;38.102;2023-05-23T05:25:33;18.30;65.50
74946;HTU21D;63509;45.250;38.102;2023-05-23T05:28:01;18.30;65.51
74946;HTU21D;63509;45.250;38.102;2023-05-23T05:30:33;18.26;65.54
74946;HTU21D;63509;45.250;38.102;2023-05-23T05:33:05;18.23;65.55
74946;HTU21D;63509;45.250;38.102;2023-05-23T05:35:35;18.23;65.53
74946;HTU21D;63509;45.250;38.102;2023-05-23T05:38:04;18.22;65.61
74946;HTU21D;63509;45.250;38.102;2023-05-23T05:40:33;18.21;65.62
74946;HTU21D;63509;45.250;38.102;2023-05-23T05:43:00;18.22;65.74
74946;HTU21D;63509;45.250;38.102;2023-05-23T05:45:26;18.24;65.82
74946;HTU21D;63509;45.250;38.102;2023-05-23T05:47:53;18.28;65.83
74946;HTU21D;63509;45.250;38.102;2023-05-23T05:50:21;18.34;65.88
74946;HTU21D;63509;45.250;38.102;2023-05-23T05:52:48;18.40;65.89
74946;HTU21D;63509;45.250;38.102;2023-05-23T05:55:14;18.44;65.88
74946;HTU21D;63509;45.250;38.102;2023-05-23T05:57:45;18.50;65.86
74946;HTU21D;63509;45.250;38.102;2023-05-23T06:00:13;18.53;65.82
74946;HTU21D;63509;45.250;38.102;2023-05-23T06:02:45;18.57;65.78
74946;HTU21D;63509;45.250;38.102;2023-05-23T06:05:15;18.62;65.73
74946;HTU21D;63509;45.250;38.102;2023-05-23T06:07:42;18.63;65.75
74946;HTU21D;63509;45.250;38.102;2023-05-23T06:10:09;18.66;65.72
74946;HTU21D;63509;45.250;38.102;2023-05-23T06:12:38;18.67;65.66
74946;HTU21D;63509;45.250;38.102;2023-05-23T06:15:05;18.66;65.68
74946;HTU21D;63509;45.250;38.102;2023-05-23T06:17:32;18.66;65.71
74946;HTU21D;63509;45.250;38.102;2023-05-23T06:19:58;18.67;65.75
74946;HTU21D;63509;45.250;38.102;2023-05-23T06:22:24;18.69;65.80
74946;HTU21D;63509;45.250;38.102;2023-05-23T06:24:52;18.71;65.85
74946;HTU21D;63509;45.250;38.102;2023-05-23T06:27:18;18.76;65.91
74946;HTU21D;63509;45.250;38.102;2023-05-23T06:29:44;18.81;65.98
74946;HTU21D;63509;45.250;38.102;2023-05-23T06:32:10;18.91;66.14
74946;HTU21D;63509;45.250;38.102;2023-05-23T06:34:36;19.06;66.29
74946;HTU21D;63509;45.250;38.102;2023-05-23T06:37:02;19.23;66.30
74946;HTU21D;63509;45.250;38.102;2023-05-23T06:39:28;19.39;66.27
74946;HTU21D;63509;45.250;38.102;2023-05-23T06:41:54;19.54;66.23
74946;HTU21D;63509;45.250;38.102;2023-05-23T06:44:21;19.73;66.21
74946;HTU21D;63509;45.250;38.102;2023-05-23T06:46:51;19.92;66.24
74946;HTU21D;63509;45.250;38.102;2023-05-23T06:49:23;20.15;66.26
74946;HTU21D;63509;45.250;38.102;2023-05-23T06:51:49;20.32;66.02
74946;HTU21D;63509;45.250;38.102;2023-05-23T06:54:17;20.43;65.88
74946;HTU21D;63509;45.250;38.102;2023-05-23T06:56:43;20.54;65.86
74946;HTU21D;63509;45.250;38.102;2023-05-23T06:59:09;20.64;65.72
74946;HTU21D;63509;45.250;38.102;2023-05-23T07:01:36;20.71;65.48
74946;HTU21D;63509;45.250;38.102;2023-05-23T07:04:02;20.69;65.35
74946;HTU21D;63509;45.250;38.102;2023-05-23T07:06:29;20.63;65.24
74946;HTU21D;63509;45.250;38.102;2023-05-23T07:08:56;20.55;65.27
74946;HTU21D;63509;45.250;38.102;2023-05-23T07:11:24;20.46;65.28
74946;HTU21D;63509;45.250;38.102;2023-05-23T07:13:58;20.44;65.33
74946;HTU21D;63509;45.250;38.102;2023-05-23T07:16:36;20.39;65.28
74946;HTU21D;63509;45.250;38.102;2023-05-23T07:19:05;20.36;65.26
74946;HTU21D;63509;45.250;38.102;2023-05-23T07:21:35;20.32;65.33
74946;HTU21D;63509;45.250;38.102;2023-05-23T07:24:01;20.31;65.42
74946;HTU21D;63509;45.250;38.102;2023-05-23T07:26:28;20.32;65.41
74946;HTU21D;63509;45.250;38.102;2023-05-23T07:28:55;20.33;65.43
74946;HTU21D;63509;45.250;38.102;2023-05-23T07:31:21;20.34;65.45
74946;HTU21D;63509;45.250;38.102;2023-05-23T07:33:50;20.37;65.45
74946;HTU21D;63509;45.250;38.102;2023-05-23T07:36:22;20.39;65.45
74946;HTU21D;63509;45.250;38.102;2023-05-23T07:38:49;20.39;65.44
74946;HTU21D;63509;45.250;38.102;2023-05-23T07:41:15;20.40;65.49
74946;HTU21D;63509;45.250;38.102;2023-05-23T07:43:41;20.44;65.53
74946;HTU21D;63509;45.250;38.102;2023-05-23T07:46:08;20.45;65.51
74946;HTU21D;63509;45.250;38.102;2023-05-23T07:48:35;20.46;65.45
74946;HTU21D;63509;45.250;38.102;2023-05-23T07:51:02;20.43;65.43
74946;HTU21D;63509;45.250;38.102;2023-05-23T07:53:29;20.39;65.44
74946;HTU21D;63509;45.250;38.102;2023-05-23T07:55:56;20.34;65.46
74946;HTU21D;63509;45.250;38.102;2023-05-23T07:58:26;20.29;65.51
74946;HTU21D;63509;45.250;38.102;2023-05-23T08:00:52;20.25;65.50
74946;HTU21D;63509;45.250;38.102;2023-05-23T08:03:57;20.16;65.50
74946;HTU21D;63509;45.250;38.102;2023-05-23T08:06:30;20.10;65.54
74946;HTU21D;63509;45.250;38.102;2023-05-23T08:09:00;20.05;65.56
74946;HTU21D;63509;45.250;38.102;2023-05-23T08:11:29;20.01;65.67
74946;HTU21D;63509;45.250;38.102;2023-05-23T08:13:55;19.97;65.70
74946;HTU21D;63509;45.250;38.102;2023-05-23T08:16:30;19.95;65.75
74946;HTU21D;63509;45.250;38.102;2023-05-23T08:18:57;19.91;65.79
74946;HTU21D;63509;45.250;38.102;2023-05-23T08:21:23;19.87;65.85
74946;HTU21D;63509;45.250;38.102;2023-05-23T08:23:49;19.84;65.90
74946;HTU21D;63509;45.250;38.102;2023-05-23T08:26:15;19.82;65.95
74946;HTU21D;63509;45.250;38.102;2023-05-23T08:28:42;19.82;66.00
74946;HTU21D;63509;45.250;38.102;2023-05-23T08:31:08;19.79;65.98
74946;HTU21D;63509;45.250;38.102;2023-05-23T08:33:34;19.79;66.01
74946;HTU21D;63509;45.250;38.102;2023-05-23T08:36:00;19.77;66.04
74946;HTU21D;63509;45.250;38.102;2023-05-23T08:38:28;19.81;66.08
74946;HTU21D;63509;45.250;38.102;2023-05-23T08:41:11;19.86;66.08
74946;HTU21D;63509;45.250;38.102;2023-05-23T08:43:41;19.90;66.12
74946;HTU21D;63509;45.250;38.102;2023-05-23T08:46:11;19.99;66.17
74946;HTU21D;63509;45.250;38.102;2023-05-23T08:48:38;20.06;66.17
74946;HTU21D;63509;45.250;38.102;2023-05-23T08:51:06;20.14;66.17
74946;HTU21D;63509;45.250;38.102;2023-05-23T08:53:35;20.22;66.16
74946;HTU21D;63509;45.250;38.102;2023-05-23T08:56:06;20.32;66.19
74946;HTU21D;63509;45.250;38.102;2023-05-23T08:58:41;20.41;66.16
74946;HTU21D;63509;45.250;38.102;2023-05-23T09:01:08;20.54;66.25
74946;HTU21D;63509;45.250;38.102;2023-05-23T09:03:36;20.70;66.32
74946;HTU21D;63509;45.250;38.102;2023-05-23T09:06:14;20.88;66.27
74946;HTU21D;63509;45.250;38.102;2023-05-23T09:08:44;21.07;66.30
74946;HTU21D;63509;45.250;38.102;2023-05-23T09:11:13;21.25;66.16
74946;HTU21D;63509;45.250;38.102;2023-05-23T09:13:42;21.42;66.20
74946;HTU21D;63509;45.250;38.102;2023-05-23T09:16:15;21.67;66.20
74946;HTU21D;63509;45.250;38.102;2023-05-23T09:18:50;21.91;66.24
74946;HTU21D;63509;45.250;38.102;2023-05-23T09:21:19;22.23;66.21
74946;HTU21D;63509;45.250;38.102;2023-05-23T09:24:04;22.56;66.03
74946;HTU21D;63509;45.250;38.102;2023-05-23T09:26:32;22.90;65.92
74946;HTU21D;63509;45.250;38.102;2023-05-23T09:28:59;23.27;65.93
74946;HTU21D;63509;45.250;38.102;2023-05-23T09:31:26;23.68;65.85
74946;HTU21D;63509;45.250;38.102;2023-05-23T09:33:57;24.12;65.35
74946;HTU21D;63509;45.250;38.102;2023-05-23T09:36:27;24.45;64.95
74946;HTU21D;63509;45.250;38.102;2023-05-23T09:39:02;24.83;64.82
74946;HTU21D;63509;45.250;38.102;2023-05-23T09:41:34;25.23;64.50
74946;HTU21D;63509;45.250;38.102;2023-05-23T09:44:07;25.61;64.06
74946;HTU21D;63509;45.250;38.102;2023-05-23T09:46:35;26.03;63.92
74946;HTU21D;63509;45.250;38.102;2023-05-23T09:49:14;26.47;63.45
74946;HTU21D;63509;45.250;38.102;2023-05-23T09:51:41;26.81;62.92
74946;HTU21D;63509;45.250;38.102;2023-05-23T09:54:08;27.02;62.41
74946;HTU21D;63509;45.250;38.102;2023-05-23T09:56:39;27.13;62.15
74946;HTU21D;63509;45.250;38.102;2023-05-23T09:59:11;27.42;62.14
74946;HTU21D;63509;45.250;38.102;2023-05-23T10:01:41;27.76;61.67
74946;HTU21D;63509;45.250;38.102;2023-05-23T10:04:08;28.04;61.18
74946;HTU21D;63509;45.250;38.102;2023-05-23T10:06:40;28.26;60.83
74946;HTU21D;63509;45.250;38.102;2023-05-23T10:09:12;28.42;60.44
74946;HTU21D;63509;45.250;38.102;2023-05-23T10:15:08;28.59;59.78
74946;HTU21D;63509;45.250;38.102;2023-05-23T10:21:07;29.07;59.61
74946;HTU21D;63509;45.250;38.102;2023-05-23T10:27:19;29.57;58.66
74946;HTU21D;63509;45.250;38.102;2023-05-23T10:29:45;29.72;57.95
74946;HTU21D;63509;45.250;38.102;2023-05-23T10:32:12;29.75;57.58
74946;HTU21D;63509;45.250;38.102;2023-05-23T10:37:37;29.94;57.38
74946;HTU21D;63509;45.250;38.102;2023-05-23T10:43:22;30.30;56.78
74946;HTU21D;63509;45.250;38.102;2023-05-23T10:45:59;30.27;56.58
74946;HTU21D;63509;45.250;38.102;2023-05-23T10:48:34;30.31;56.52
74946;HTU21D;63509;45.250;38.102;2023-05-23T10:51:11;30.51;56.35
74946;HTU21D;63509;45.250;38.102;2023-05-23T10:53:45;30.74;55.79
74946;HTU21D;63509;45.250;38.102;2023-05-23T10:56:21;30.86;55.42
74946;HTU21D;63509;45.250;38.102;2023-05-23T10:58:55;30.95;55.18
74946;HTU21D;63509;45.250;38.102;2023-05-23T11:01:23;30.93;54.67
74946;HTU21D;63509;45.250;38.102;2023-05-23T11:03:53;30.94;54.55
74946;HTU21D;63509;45.250;38.102;2023-05-23T11:06:36;30.94;54.54
74946;HTU21D;63509;45.250;38.102;2023-05-23T11:09:15;30.87;54.33
74946;HTU21D;63509;45.250;38.102;2023-05-23T11:12:00;30.72;54.23
74946;HTU21D;63509;45.250;38.102;2023-05-23T11:19:59;30.59;53.97
74946;HTU21D;63509;45.250;38.102;2023-05-23T11:22:28;30.61;53.72
74946;HTU21D;63509;45.250;38.102;2023-05-23T11:24:57;30.52;53.45
74946;HTU21D;63509;45.250;38.102;2023-05-23T11:27:45;30.56;53.60
74946;HTU21D;63509;45.250;38.102;2023-05-23T11:30:12;30.62;53.20
74946;HTU21D;63509;45.250;38.102;2023-05-23T11:32:39;30.72;53.05
74946;HTU21D;63509;45.250;38.102;2023-05-23T11:35:09;30.87;52.78
74946;HTU21D;63509;45.250;38.102;2023-05-23T11:37:39;31.01;52.73
74946;HTU21D;63509;45.250;38.102;2023-05-23T11:40:29;31.21;52.50
74946;HTU21D;63509;45.250;38.102;2023-05-23T11:43:01;31.28;52.17
74946;HTU21D;63509;45.250;38.102;2023-05-23T11:45:28;31.37;51.89
74946;HTU21D;63509;45.250;38.102;2023-05-23T11:47:56;31.51;51.75
74946;HTU21D;63509;45.250;38.102;2023-05-23T11:50:22;31.67;51.40
74946;HTU21D;63509;45.250;38.102;2023-05-23T11:52:53;31.71;51.04
74946;HTU21D;63509;45.250;38.102;2023-05-23T11:55:20;31.65;50.98
74946;HTU21D;63509;45.250;38.102;2023-05-23T11:57:46;31.53;51.78
74946;HTU21D;63509;45.250;38.102;2023-05-23T12:00:13;31.53;51.49
74946;HTU21D;63509;45.250;38.102;2023-05-23T12:02:41;31.63;51.22
74946;HTU21D;63509;45.250;38.102;2023-05-23T12:05:08;31.75;50.99
74946;HTU21D;63509;45.250;38.102;2023-05-23T12:07:39;31.80;50.61
74946;HTU21D;63509;45.250;38.102;2023-05-23T12:10:05;31.79;50.46
74946;HTU21D;63509;45.250;38.102;2023-05-23T12:12:31;31.76;50.29
74946;HTU21D;63509;45.250;38.102;2023-05-23T12:14:57;31.76;50.21
74946;HTU21D;63509;45.250;38.102;2023-05-23T12:17:24;31.79;50.02
74946;HTU21D;63509;45.250;38.102;2023-05-23T12:19:51;31.81;49.79
74946;HTU21D;63509;45.250;38.102;2023-05-23T12:22:22;31.66;49.80
74946;HTU21D;63509;45.250;38.102;2023-05-23T12:24:52;31.43;49.85
74946;HTU21D;63509;45.250;38.102;2023-05-23T12:27:29;31.20;49.95
74946;HTU21D;63509;45.250;38.102;2023-05-23T12:30:10;30.96;50.15
74946;HTU21D;63509;45.250;38.102;2023-05-23T12:32:40;30.81;50.25
74946;HTU21D;63509;45.250;38.102;2023-05-23T12:35:07;30.77;50.21
74946;HTU21D;63509;45.250;38.102;2023-05-23T12:37:34;30.77;50.12
74946;HTU21D;63509;45.250;38.102;2023-05-23T12:40:16;30.75;50.21
74946;HTU21D;63509;45.250;38.102;2023-05-23T12:42:53;30.65;50.26
74946;HTU21D;63509;45.250;38.102;2023-05-23T12:45:31;30.64;50.30
74946;HTU21D;63509;45.250;38.102;2023-05-23T12:48:05;30.60;50.22
74946;HTU21D;63509;45.250;38.102;2023-05-23T12:50:32;30.54;50.08
74946;HTU21D;63509;45.250;38.102;2023-05-23T12:52:58;30.52;49.96
74946;HTU21D;63509;45.250;38.102;2023-05-23T12:55:24;30.46;49.73
74946;HTU21D;63509;45.250;38.102;2023-05-23T12:57:50;30.36;49.77
74946;HTU21D;63509;45.250;38.102;2023-05-23T13:00:17;30.27;49.71
74946;HTU21D;63509;45.250;38.102;2023-05-23T13:02:44;30.21;49.70
74946;HTU21D;63509;45.250;38.102;2023-05-23T13:05:10;30.17;49.66
74946;HTU21D;63509;45.250;38.102;2023-05-23T13:07:36;30.07;49.49
74946;HTU21D;63509;45.250;38.102;2023-05-23T13:10:03;29.96;49.56
74946;HTU21D;63509;45.250;38.102;2023-05-23T13:12:29;29.95;49.50
74946;HTU21D;63509;45.250;38.102;2023-05-23T13:14:56;29.96;49.36
74946;HTU21D;63509;45.250;38.102;2023-05-23T13:17:23;29.88;49.24
74946;HTU21D;63509;45.250;38.102;2023-05-23T13:19:49;29.77;49.22
74946;HTU21D;63509;45.250;38.102;2023-05-23T13:22:15;29.64;49.29
74946;HTU21D;63509;45.250;38.102;2023-05-23T13:24:42;29.51;49.35
74946;HTU21D;63509;45.250;38.102;2023-05-23T13:27:08;29.39;49.51
74946;HTU21D;63509;45.250;38.102;2023-05-23T13:29:34;29.30;49.47
74946;HTU21D;63509;45.250;38.102;2023-05-23T13:32:00;29.23;49.52
74946;HTU21D;63509;45.250;38.102;2023-05-23T13:34:26;29.18;49.45
74946;HTU21D;63509;45.250;38.102;2023-05-23T13:36:53;29.08;49.40
74946;HTU21D;63509;45.250;38.102;2023-05-23T13:39:19;28.93;49.52
74946;HTU21D;63509;45.250;38.102;2023-05-23T13:41:50;28.77;49.58
74946;HTU21D;63509;45.250;38.102;2023-05-23T13:44:16;28.60;49.76
74946;HTU21D;63509;45.250;38.102;2023-05-23T13:46:43;28.56;49.90
74946;HTU21D;63509;45.250;38.102;2023-05-23T13:49:09;28.49;49.91
74946;HTU21D;63509;45.250;38.102;2023-05-23T13:51:35;28.46;49.91
74946;HTU21D;63509;45.250;38.102;2023-05-23T13:54:04;28.39;49.88
74946;HTU21D;63509;45.250;38.102;2023-05-23T13:56:31;28.31;49.85
74946;HTU21D;63509;45.250;38.102;2023-05-23T13:58:57;28.21;49.88
74946;HTU21D;63509;45.250;38.102;2023-05-23T14:01:23;28.08;49.89
74946;HTU21D;63509;45.250;38.102;2023-05-23T14:03:49;27.95;49.98
74946;HTU21D;63509;45.250;38.102;2023-05-23T14:06:15;27.78;50.08
74946;HTU21D;63509;45.250;38.102;2023-05-23T14:08:42;27.58;50.23
74946;HTU21D;63509;45.250;38.102;2023-05-23T14:11:07;27.43;50.40
74946;HTU21D;63509;45.250;38.102;2023-05-23T14:13:34;27.31;50.58
74946;HTU21D;63509;45.250;38.102;2023-05-23T14:16:00;27.17;50.71
74946;HTU21D;63509;45.250;38.102;2023-05-23T14:18:26;27.08;50.84
74946;HTU21D;63509;45.250;38.102;2023-05-23T14:20:52;27.00;50.93
74946;HTU21D;63509;45.250;38.102;2023-05-23T14:23:18;26.91;51.01
74946;HTU21D;63509;45.250;38.102;2023-05-23T14:25:44;26.83;51.10
74946;HTU21D;63509;45.250;38.102;2023-05-23T14:28:11;26.77;51.21
74946;HTU21D;63509;45.250;38.102;2023-05-23T14:30:37;26.76;51.29
74946;HTU21D;63509;45.250;38.102;2023-05-23T14:33:03;26.75;51.30
74946;HTU21D;63509;45.250;38.102;2023-05-23T14:35:29;26.72;51.30
74946;HTU21D;63509;45.250;38.102;2023-05-23T14:37:55;26.68;51.33
74946;HTU21D;63509;45.250;38.102;2023-05-23T14:40:21;26.63;51.36
74946;HTU21D;63509;45.250;38.102;2023-05-23T14:42:48;26.58;51.44
74946;HTU21D;63509;45.250;38.102;2023-05-23T14:45:14;26.58;51.45
74946;HTU21D;63509;45.250;38.102;2023-05-23T14:47:40;26.54;51.48
74946;HTU21D;63509;45.250;38.102;2023-05-23T14:50:07;26.50;51.51
74946;HTU21D;63509;45.250;38.102;2023-05-23T14:52:33;26.49;51.53
74946;HTU21D;63509;45.250;38.102;2023-05-23T14:54:59;26.43;51.56
74946;HTU21D;63509;45.250;38.102;2023-05-23T14:57:25;26.40;51.62
74946;HTU21D;63509;45.250;38.102;2023-05-23T14:59:51;26.38;51.69
74946;HTU21D;63509;45.250;38.102;2023-05-23T15:02:18;26.37;51.72
74946;HTU21D;63509;45.250;38.102;2023-05-23T15:04:44;26.33;51.75
74946;HTU21D;63509;45.250;38.102;2023-05-23T15:07:10;26.30;51.79
74946;HTU21D;63509;45.250;38.102;2023-05-23T15:09:38;26.26;51.86
74946;HTU21D;63509;45.250;38.102;2023-05-23T15:12:04;26.21;51.91
74946;HTU21D;63509;45.250;38.102;2023-05-23T15:14:32;26.18;51.97
74946;HTU21D;63509;45.250;38.102;2023-05-23T15:16:58;26.13;52.01
74946;HTU21D;63509;45.250;38.102;2023-05-23T15:19:35;26.10;52.01
74946;HTU21D;63509;45.250;38.102;2023-05-23T15:22:05;26.07;52.04
74946;HTU21D;63509;45.250;38.102;2023-05-23T15:24:31;26.02;52.06
74946;HTU21D;63509;45.250;38.102;2023-05-23T15:26:57;25.98;52.10
74946;HTU21D;63509;45.250;38.102;2023-05-23T15:29:24;25.92;52.12
74946;HTU21D;63509;45.250;38.102;2023-05-23T15:31:51;25.87;52.17
74946;HTU21D;63509;45.250;38.102;2023-05-23T15:34:18;25.80;52.22
74946;HTU21D;63509;45.250;38.102;2023-05-23T15:36:44;25.74;52.28
74946;HTU21D;63509;45.250;38.102;2023-05-23T15:39:11;25.68;52.34
74946;HTU21D;63509;45.250;38.102;2023-05-23T15:41:37;25.62;52.40